Decoded Metar for LZSL (SLIAC in SLOVAKIA) (IATA:SLD) | Meteo·Mobile Aviation Weather
aviador You're here:

LZSL Decoded Metar

SLIAC in SLOVAKIA
Report Time2019-07-16 09:30:00
UTC Time2019-07-16 10:02:39
Flight Rules vfr VFR
WindVRB at 04 kt
Visibility9999 m
Phenomena:N/A
Clouds:N/A
Expected CloudBase > 5,600 ft AGL from Temp-Dew spread
CeilingNone
Temp24°C (ISA +11)
Dew Point10°C (41% RH)
AAT22.6°C
QNH1013 hPa
Density Alt2,474 ft
Elevation1,027 ft
Report Wrong Elevation
Raw Report
LZSL 160930Z VRB04KT CAVOK 24/10 Q1013=

Extra information for LZSL:More info

Metar Taf Metar & Taf Last 4 Metars F.Rules Stats Wind Profile Meteogram Temp Stats Airport Information Weather charts Add Link Nearby VenuesMetar ALERT Operation Metar Decoded Social comments